Terminal Aerodrome Forecast
Issued by NWS Louisville, KY

Home | Current Version | Previous Version | Text Only | Print | Product List | Glossary On
Versions: 1 2 3 4 5 6 7 8 9 10 11 12 13 14 15 16 17
000
FTUS43 KLMK 181100
TAFLEX
TAF
KLEX 181135Z 1812/1912 VRB03KT P6SM FEW250
     FM181500 07008KT P6SM SCT250
     FM190700 09007KT P6SM -SHRA BKN050=

USA.gov is the U.S. government's official web portal to all federal, state and local government web resources and services.